createdAt,value
2023-02-25T00:02:04.612Z,92256.00
2023-02-25T00:10:32.165Z,92242.00
2023-02-25T00:14:45.008Z,92232.00
2023-02-25T00:18:49.065Z,92229.00
2023-02-25T00:22:54.245Z,92254.00
2023-02-25T00:26:57.744Z,92242.00
2023-02-25T00:31:24.843Z,92252.00
2023-02-25T00:35:29.447Z,92219.00
2023-02-25T00:45:45.580Z,92234.00
2023-02-25T00:49:52.411Z,92236.00
2023-02-25T00:53:57.805Z,92243.00
2023-02-25T00:58:02.388Z,92227.00
2023-02-25T01:02:08.417Z,92256.00
2023-02-25T01:06:12.142Z,92267.00
2023-02-25T01:10:15.907Z,92255.00
2023-02-25T01:14:22.387Z,92301.00
2023-02-25T01:18:27.729Z,92297.00
2023-02-25T01:23:33.849Z,92311.00
2023-02-25T01:27:39.913Z,92288.00
2023-02-25T01:32:40.545Z,92310.00
2023-02-25T01:36:46.589Z,92319.00
2023-02-25T01:41:42.221Z,92311.00
2023-02-25T01:45:46.359Z,92284.00
2023-02-25T01:49:50.152Z,92288.00
2023-02-25T01:54:10.828Z,92302.00
2023-02-25T01:58:14.807Z,92319.00
2023-02-25T02:02:22.662Z,92265.00
2023-02-25T02:06:33.164Z,92269.00
2023-02-25T02:10:38.396Z,92279.00
2023-02-25T02:14:44.368Z,92277.00
2023-02-25T02:18:55.102Z,92250.00
2023-02-25T02:23:26.744Z,92251.00
2023-02-25T02:27:57.163Z,92267.00
2023-02-25T02:32:43.786Z,92260.00
2023-02-25T02:37:03.679Z,92279.00
2023-02-25T02:41:22.795Z,92282.00
2023-02-25T02:45:39.004Z,92286.00
2023-02-25T02:54:12.498Z,92302.00
2023-02-25T02:58:23.138Z,92295.00
2023-02-25T03:07:12.039Z,92326.00
2023-02-25T03:11:25.301Z,92325.00
2023-02-25T03:15:30.910Z,92322.00
2023-02-25T03:24:32.913Z,92316.00
2023-02-25T03:28:37.908Z,92324.00
2023-02-25T03:32:48.622Z,92313.00
2023-02-25T03:46:32.073Z,92322.00
2023-02-25T03:50:43.291Z,92335.00
2023-02-25T03:54:52.772Z,92342.00
2023-02-25T04:04:59.379Z,92346.00
2023-02-25T04:09:04.782Z,92355.00
2023-02-25T04:13:09.664Z,92340.00
2023-02-25T04:17:13.639Z,92355.00
2023-02-25T04:21:45.166Z,92359.00
2023-02-25T04:25:49.365Z,92348.00
2023-02-25T04:30:02.990Z,92360.00
2023-02-25T04:34:06.704Z,92363.00
2023-02-25T04:38:24.907Z,92360.00
2023-02-25T04:42:28.385Z,92317.00
2023-02-25T04:46:35.672Z,92340.00
2023-02-25T04:50:39.314Z,92335.00
2023-02-25T04:54:44.575Z,92342.00
2023-02-25T04:59:48.441Z,92360.00
2023-02-25T05:03:57.180Z,92351.00
2023-02-25T05:08:14.611Z,92342.00
2023-02-25T05:12:26.992Z,92361.00
2023-02-25T05:16:30.863Z,92359.00
2023-02-25T05:20:34.797Z,92362.00
2023-02-25T05:25:04.789Z,92368.00
2023-02-25T05:29:10.127Z,92374.00
2023-02-25T05:34:08.542Z,92384.00
2023-02-25T05:38:14.008Z,92366.00
2023-02-25T05:43:11.482Z,92391.00
2023-02-25T05:47:17.521Z,92385.00
2023-02-25T05:52:18.065Z,92387.00
2023-02-25T05:56:25.725Z,92394.00
2023-02-25T06:00:30.812Z,92405.00
2023-02-25T06:04:36.143Z,92411.00
2023-02-25T06:09:09.540Z,92439.00
2023-02-25T06:13:14.709Z,92455.00
2023-02-25T06:17:43.664Z,92453.00
2023-02-25T06:21:48.617Z,92451.00
2023-02-25T06:25:59.620Z,92436.00
2023-02-25T06:30:03.864Z,92450.00
2023-02-25T06:39:44.500Z,92441.00
2023-02-25T06:44:15.710Z,92451.00
2023-02-25T06:48:19.393Z,92451.00
2023-02-25T06:52:23.057Z,92478.00
2023-02-25T06:56:53.949Z,92469.00
2023-02-25T07:00:57.408Z,92463.00
2023-02-25T07:05:01.498Z,92479.00
2023-02-25T07:09:06.238Z,92485.00
2023-02-25T07:13:12.577Z,92495.00
2023-02-25T07:17:41.612Z,92472.00
2023-02-25T07:21:45.996Z,92442.00
2023-02-25T07:26:03.298Z,92439.00
2023-02-25T07:30:17.967Z,92484.00
2023-02-25T07:34:21.644Z,92463.00
2023-02-25T07:38:40.286Z,92471.00
2023-02-25T07:42:44.557Z,92451.00
2023-02-25T07:46:50.718Z,92446.00
2023-02-25T07:50:54.242Z,92463.00
2023-02-25T07:55:13.897Z,92481.00
2023-02-25T07:59:17.653Z,92467.00
2023-02-25T08:03:37.441Z,92447.00
2023-02-25T08:07:41.099Z,92441.00
2023-02-25T08:11:53.128Z,92467.00
2023-02-25T08:15:56.540Z,92476.00
2023-02-25T08:20:01.482Z,92463.00
2023-02-25T08:25:12.850Z,92470.00
2023-02-25T08:29:17.046Z,92460.00
2023-02-25T08:33:49.583Z,92461.00
2023-02-25T08:37:54.989Z,92473.00
2023-02-25T08:41:58.433Z,92485.00
2023-02-25T08:46:26.187Z,92481.00
2023-02-25T08:50:30.384Z,92472.00
2023-02-25T08:54:36.182Z,92497.00
2023-02-25T08:58:40.151Z,92507.00
2023-02-25T09:02:45.951Z,92507.00
2023-02-25T09:06:49.685Z,92498.00
2023-02-25T09:11:19.386Z,92507.00
2023-02-25T09:15:23.693Z,92510.00
2023-02-25T09:19:27.602Z,92511.00
2023-02-25T09:23:58.452Z,92516.00
2023-02-25T09:28:03.285Z,92497.00
2023-02-25T09:32:08.713Z,92528.00
2023-02-25T09:36:14.190Z,92530.00
2023-02-25T09:40:46.898Z,92516.00
2023-02-25T09:44:53.344Z,92557.00
2023-02-25T09:49:27.687Z,92550.00
2023-02-25T09:53:35.393Z,92553.00
2023-02-25T09:57:47.343Z,92551.00
2023-02-25T10:01:58.100Z,92573.00
2023-02-25T10:10:50.728Z,92559.00
2023-02-25T10:15:38.878Z,92552.00
2023-02-25T10:20:23.561Z,92547.00
2023-02-25T10:24:37.595Z,92546.00
2023-02-25T10:28:43.881Z,92536.00
2023-02-25T10:33:18.511Z,92522.00
2023-02-25T10:37:34.871Z,92536.00
2023-02-25T10:41:42.135Z,92545.00
2023-02-25T10:46:02.409Z,92513.00
2023-02-25T10:50:46.194Z,92526.00
2023-02-25T10:54:58.960Z,92512.00
2023-02-25T10:59:05.655Z,92500.00
2023-02-25T11:03:24.736Z,92488.00
2023-02-25T11:07:35.993Z,92504.00
2023-02-25T11:12:18.001Z,92496.00
2023-02-25T11:16:25.412Z,92462.00
2023-02-25T11:20:57.306Z,92489.00
2023-02-25T11:25:04.203Z,92483.00
2023-02-25T11:29:25.162Z,92487.00
2023-02-25T11:33:43.418Z,92494.00
2023-02-25T11:37:49.432Z,92487.00
2023-02-25T11:42:24.635Z,92494.00
2023-02-25T11:46:41.676Z,92482.00
2023-02-25T11:51:03.149Z,92496.00
2023-02-25T11:55:21.689Z,92465.00
2023-02-25T11:59:56.145Z,92459.00
2023-02-25T12:04:22.346Z,92481.00
2023-02-25T12:08:50.092Z,92463.00
2023-02-25T12:13:28.439Z,92466.00
2023-02-25T12:18:09.216Z,92469.00
2023-02-25T12:23:01.787Z,92448.00
2023-02-25T12:27:28.762Z,92463.00
2023-02-25T12:32:03.505Z,92458.00
2023-02-25T12:36:27.572Z,92443.00
2023-02-25T12:40:52.201Z,92438.00
2023-02-25T12:45:16.449Z,92444.00
2023-02-25T12:49:42.465Z,92449.00
2023-02-25T12:54:03.798Z,92432.00
2023-02-25T12:58:39.628Z,92431.00
2023-02-25T13:03:21.344Z,92439.00
2023-02-25T13:07:57.434Z,92447.00
2023-02-25T13:12:23.222Z,92409.00
2023-02-25T13:16:53.637Z,92433.00
2023-02-25T13:21:30.393Z,92427.00
2023-02-25T13:26:03.776Z,92435.00
2023-02-25T13:30:34.599Z,92459.00
2023-02-25T13:34:51.736Z,92449.00
2023-02-25T13:39:31.659Z,92464.00
2023-02-25T13:44:28.838Z,92449.00
2023-02-25T13:48:55.861Z,92432.00
2023-02-25T13:53:34.049Z,92450.00
2023-02-25T13:58:22.109Z,92423.00
2023-02-25T14:03:32.779Z,92444.00
2023-02-25T14:08:19.030Z,92456.00
2023-02-25T14:12:58.936Z,92453.00
2023-02-25T14:18:01.669Z,92466.00
2023-02-25T14:22:43.226Z,92490.00
2023-02-25T14:27:05.313Z,92487.00
2023-02-25T14:31:33.832Z,92475.00
2023-02-25T14:35:56.961Z,92497.00
2023-02-25T14:40:27.517Z,92521.00
2023-02-25T14:44:44.964Z,92558.00
2023-02-25T14:49:15.161Z,92536.00
2023-02-25T14:54:10.212Z,92564.00
2023-02-25T14:58:39.182Z,92568.00
2023-02-25T15:03:02.860Z,92556.00
2023-02-25T15:07:41.466Z,92576.00
2023-02-25T15:12:23.245Z,92572.00
2023-02-25T15:17:06.648Z,92566.00
2023-02-25T15:21:37.475Z,92561.00
2023-02-25T15:25:46.926Z,92561.00
2023-02-25T15:30:05.975Z,92552.00
2023-02-25T15:39:52.115Z,92581.00
2023-02-25T15:44:00.252Z,92591.00
2023-02-25T15:48:38.111Z,92594.00
2023-02-25T15:53:02.107Z,92597.00
2023-02-25T15:57:38.465Z,92587.00
2023-02-25T16:01:46.066Z,92592.00
2023-02-25T16:05:49.607Z,92592.00
2023-02-25T16:11:10.822Z,92616.00
2023-02-25T16:15:17.068Z,92648.00
2023-02-25T16:19:28.133Z,92647.00
2023-02-25T16:23:33.600Z,92659.00
2023-02-25T16:28:06.712Z,92672.00
2023-02-25T16:32:25.853Z,92667.00
2023-02-25T16:36:47.218Z,92689.00
2023-02-25T16:40:51.305Z,92696.00
2023-02-25T16:45:04.538Z,92698.00
2023-02-25T16:49:12.194Z,92702.00
2023-02-25T16:53:44.297Z,92706.00
2023-02-25T16:58:02.775Z,92694.00
2023-02-25T17:02:27.025Z,92711.00
2023-02-25T17:06:30.479Z,92712.00
2023-02-25T17:10:44.825Z,92719.00
2023-02-25T17:14:51.126Z,92701.00
2023-02-25T17:19:00.114Z,92724.00
2023-02-25T17:23:07.888Z,92722.00
2023-02-25T17:27:18.576Z,92709.00
2023-02-25T17:31:28.719Z,92733.00
2023-02-25T17:35:39.188Z,92749.00
2023-02-25T17:39:49.423Z,92731.00
2023-02-25T17:44:08.253Z,92750.00
2023-02-25T17:48:22.931Z,92716.00
2023-02-25T17:52:29.064Z,92739.00
2023-02-25T17:56:35.375Z,92738.00
2023-02-25T18:00:40.504Z,92729.00
2023-02-25T18:04:44.161Z,92716.00
2023-02-25T18:08:53.498Z,92735.00
2023-02-25T18:12:57.252Z,92749.00
2023-02-25T18:18:01.685Z,92753.00
2023-02-25T18:22:09.076Z,92752.00
2023-02-25T18:26:15.796Z,92750.00
2023-02-25T18:30:33.089Z,92749.00
2023-02-25T18:34:36.523Z,92743.00
2023-02-25T18:38:41.912Z,92732.00
2023-02-25T18:42:48.370Z,92748.00
2023-02-25T18:47:00.778Z,92768.00
2023-02-25T18:51:29.297Z,92769.00
2023-02-25T18:55:35.209Z,92767.00
2023-02-25T18:59:42.657Z,92755.00
2023-02-25T19:03:46.708Z,92761.00
2023-02-25T19:07:50.606Z,92764.00
2023-02-25T19:11:55.521Z,92759.00
2023-02-25T19:15:59.321Z,92751.00
2023-02-25T19:20:04.438Z,92754.00
2023-02-25T19:24:11.235Z,92754.00
2023-02-25T19:28:45.826Z,92769.00
2023-02-25T19:32:49.317Z,92774.00
2023-02-25T19:37:11.729Z,92775.00
2023-02-25T19:41:15.080Z,92775.00
2023-02-25T19:45:23.906Z,92783.00
2023-02-25T19:49:27.723Z,92777.00
2023-02-25T20:00:15.098Z,92789.00
2023-02-25T20:04:19.932Z,92780.00
2023-02-25T20:14:03.836Z,92790.00
2023-02-25T20:18:08.413Z,92788.00
2023-02-25T20:22:40.356Z,92801.00
2023-02-25T20:26:45.542Z,92803.00
2023-02-25T20:31:20.892Z,92811.00
2023-02-25T20:35:27.275Z,92803.00
2023-02-25T20:40:04.117Z,92810.00
2023-02-25T20:44:12.380Z,92799.00
2023-02-25T20:48:27.144Z,92817.00
2023-02-25T20:52:30.769Z,92787.00
2023-02-25T20:56:37.695Z,92802.00
2023-02-25T21:00:42.489Z,92811.00
2023-02-25T21:05:27.968Z,92818.00
2023-02-25T21:09:31.534Z,92823.00
2023-02-25T21:13:41.105Z,92805.00
2023-02-25T21:17:45.788Z,92829.00
2023-02-25T21:21:49.386Z,92837.00
2023-02-25T21:25:59.095Z,92840.00
2023-02-25T21:30:03.112Z,92840.00
2023-02-25T21:34:09.295Z,92832.00
2023-02-25T21:38:14.401Z,92841.00
2023-02-25T21:42:22.627Z,92839.00
2023-02-25T21:46:26.294Z,92844.00
2023-02-25T21:50:31.911Z,92828.00
2023-02-25T21:54:35.505Z,92822.00
2023-02-25T21:58:39.449Z,92808.00
2023-02-25T22:02:43.055Z,92840.00
2023-02-25T22:06:53.956Z,92837.00
2023-02-25T22:10:57.255Z,92826.00
2023-02-25T22:15:00.632Z,92828.00
2023-02-25T22:19:03.930Z,92821.00
2023-02-25T22:23:08.699Z,92837.00
2023-02-25T22:27:24.623Z,92832.00
2023-02-25T22:31:28.474Z,92837.00
2023-02-25T22:35:35.591Z,92832.00
2023-02-25T22:39:40.430Z,92823.00
2023-02-25T22:43:44.018Z,92839.00
2023-02-25T22:47:47.347Z,92837.00
2023-02-25T22:52:09.440Z,92843.00
2023-02-25T22:56:14.150Z,92838.00
2023-02-25T23:00:39.468Z,92854.00
2023-02-25T23:04:42.997Z,92872.00
2023-02-25T23:08:49.040Z,92871.00
2023-02-25T23:12:53.785Z,92869.00
2023-02-25T23:17:01.456Z,92881.00
2023-02-25T23:21:07.931Z,92876.00
2023-02-25T23:25:12.032Z,92894.00
2023-02-25T23:29:16.958Z,92884.00
2023-02-25T23:33:28.886Z,92884.00
2023-02-25T23:37:32.843Z,92884.00
2023-02-25T23:41:45.345Z,92887.00
2023-02-25T23:45:50.108Z,92895.00
2023-02-25T23:50:06.976Z,92889.00
2023-02-25T23:54:12.170Z,92889.00
2023-02-25T23:58:27.854Z,92898.00
